Time;durP1;ratioP1;P1;durP2;ratioP2;P2;SDS_P1;SDS_P2;PMS_P1;PMS_P2;Temp;Humidity;BMP_temperature;BMP_pressure;BME280_temperature;BME280_humidity;BME280_pressure;Samples;Min_cycle;Max_cycle;Signal;HPM_P1;HPM_P2
2022/05/15 00:01:38;;;;;;;;;;;;;;;14.20;59.40;101523.41;5084066;28;20229;-77
2022/05/15 00:04:04;;;;;;;;;;;;;;;14.23;59.15;101515.50;5086817;28;19989;-77
2022/05/15 00:06:29;;;;;;;;;;;;;;;14.14;59.44;101516.56;5074208;28;20499;-77
2022/05/15 00:08:54;;;;;;;;;;;;;;;14.13;59.51;101520.06;5070969;28;20377;-78
2022/05/15 00:11:21;;;;;;;;;;;;;;;14.11;59.43;101518.38;5084725;28;19930;-77
2022/05/15 00:13:47;;;;;;;;;;;;;;;14.22;60.00;101519.84;5085966;28;20018;-78
2022/05/15 00:16:12;;;;;;;;;;;;;;;14.27;59.93;101522.34;5096658;28;19928;-77
2022/05/15 00:18:40;;;;;;;;;;;;;;;14.09;59.70;101513.19;5090235;28;19927;-77
2022/05/15 00:21:09;;;;;;;;;;;;;;;14.19;60.21;101511.22;5070784;28;19920;-77
2022/05/15 00:23:34;;;;;;;;;;;;;;;14.03;60.25;101515.94;5092466;28;19976;-77
2022/05/15 00:26:00;;;;;;;;;;;;;;;14.02;60.54;101519.47;5094881;28;19924;-78
2022/05/15 00:28:25;;;;;;;;;;;;;;;14.03;60.60;101515.06;5080351;28;19968;-78
2022/05/15 00:30:51;;;;;;;;;;;;;;;13.96;60.88;101516.13;5082885;28;19927;-74
2022/05/15 00:33:16;;;;;;;;;;;;;;;13.97;60.51;101515.22;5067565;28;19924;-76
2022/05/15 00:35:42;;;;;;;;;;;;;;;14.01;60.22;101515.13;5087310;28;19956;-76
2022/05/15 00:38:09;;;;;;;;;;;;;;;13.84;60.83;101522.50;5088568;28;19916;-76
2022/05/15 00:40:37;;;;;;;;;;;;;;;13.89;60.32;101517.16;5091600;28;20319;-77
2022/05/15 00:43:02;;;;;;;;;;;;;;;13.94;60.33;101518.75;5088448;28;19954;-77
2022/05/15 00:45:27;;;;;;;;;;;;;;;14.05;60.07;101515.91;5091459;28;20440;-77
2022/05/15 00:47:52;;;;;;;;;;;;;;;14.03;60.37;101525.53;5088247;28;19916;-77
2022/05/15 00:50:24;;;;;;;;;;;;;;;14.08;60.38;101518.47;5094878;28;19928;-77
2022/05/15 00:52:51;;;;;;;;;;;;;;;14.02;60.31;101522.06;5090624;28;19924;-77
2022/05/15 00:55:16;;;;;;;;;;;;;;;13.92;60.41;101531.00;5088184;28;19916;-77
2022/05/15 00:57:48;;;;;;;;;;;;;;;13.90;60.18;101524.09;5087877;28;19920;-77
2022/05/15 01:00:16;;;;;;;;;;;;;;;13.92;60.37;101531.00;5086667;28;19924;-77
2022/05/15 01:02:48;;;;;;;;;;;;;;;13.98;59.99;101522.16;5090212;28;19935;-77
2022/05/15 01:05:14;;;;;;;;;;;;;;;13.97;59.69;101526.53;5087124;28;19924;-77
2022/05/15 01:07:39;;;;;;;;;;;;;;;13.80;60.45;101533.88;5085463;28;19920;-77
2022/05/15 01:10:06;;;;;;;;;;;;;;;13.91;60.05;101537.13;5086753;28;20435;-78
2022/05/15 01:12:33;;;;;;;;;;;;;;;13.86;60.07;101525.91;5088033;28;19959;-77
2022/05/15 01:14:59;;;;;;;;;;;;;;;13.83;60.01;101528.59;5072991;28;20455;-77
2022/05/15 01:17:24;;;;;;;;;;;;;;;13.88;59.98;101521.50;5087244;28;20030;-78
2022/05/15 01:19:49;;;;;;;;;;;;;;;13.89;59.76;101514.53;5087631;28;19967;-77
2022/05/15 01:22:15;;;;;;;;;;;;;;;13.94;59.83;101516.16;5063924;28;19920;-77
2022/05/15 01:24:41;;;;;;;;;;;;;;;13.76;60.14;101513.94;5088358;28;19924;-77
2022/05/15 01:27:08;;;;;;;;;;;;;;;13.64;60.25;101522.88;5089105;28;19912;-77
2022/05/15 01:29:35;;;;;;;;;;;;;;;13.75;60.22;101515.72;5090259;28;19920;-78
2022/05/15 01:32:01;;;;;;;;;;;;;;;13.62;60.35;101522.06;5089198;28;19959;-77
2022/05/15 01:34:26;;;;;;;;;;;;;;;13.72;60.17;101513.19;5088473;28;20347;-77
2022/05/15 01:36:52;;;;;;;;;;;;;;;13.78;60.14;101506.97;5088031;28;20341;-77
2022/05/15 01:39:18;;;;;;;;;;;;;;;13.70;60.11;101509.72;5087990;28;19939;-77
2022/05/15 01:41:43;;;;;;;;;;;;;;;13.81;60.26;101513.88;5087771;28;20014;-78
2022/05/15 01:44:08;;;;;;;;;;;;;;;13.89;59.25;101511.94;5086725;28;19931;-78
2022/05/15 01:46:33;;;;;;;;;;;;;;;13.73;59.37;101506.19;5080076;28;19928;-76
2022/05/15 01:49:00;;;;;;;;;;;;;;;13.60;60.02;101517.78;5083059;28;19928;-76
2022/05/15 01:51:25;;;;;;;;;;;;;;;13.66;60.03;101518.50;5085840;28;19924;-76
2022/05/15 01:53:51;;;;;;;;;;;;;;;13.74;59.35;101513.13;5084142;28;19973;-76
2022/05/15 01:56:17;;;;;;;;;;;;;;;13.57;59.98;101521.31;5088752;28;19989;-76
2022/05/15 01:58:42;;;;;;;;;;;;;;;13.71;59.63;101519.28;5088331;28;19947;-77
2022/05/15 02:01:07;;;;;;;;;;;;;;;13.67;59.88;101522.84;5090233;28;20007;-77
2022/05/15 02:03:34;;;;;;;;;;;;;;;13.71;60.02;101519.28;5086063;28;19920;-77
2022/05/15 02:05:59;;;;;;;;;;;;;;;13.75;59.54;101512.25;5084615;28;19943;-78
2022/05/15 02:08:25;;;;;;;;;;;;;;;13.57;59.82;101518.69;5090225;28;19928;-78
2022/05/15 02:10:50;;;;;;;;;;;;;;;13.63;59.66;101515.09;5081048;28;19928;-78
2022/05/15 02:13:15;;;;;;;;;;;;;;;13.66;59.74;101523.72;5086665;28;20381;-77
2022/05/15 02:15:41;;;;;;;;;;;;;;;13.49;59.86;101519.75;5085645;28;19919;-77
2022/05/15 02:18:06;;;;;;;;;;;;;;;13.52;59.62;101517.91;5087468;28;19920;-77
2022/05/15 02:20:32;;;;;;;;;;;;;;;13.53;59.63;101513.56;5066241;28;19924;-77
2022/05/15 02:22:57;;;;;;;;;;;;;;;13.61;59.34;101516.88;5082200;28;19924;-77
2022/05/15 02:25:22;;;;;;;;;;;;;;;13.39;59.58;101516.47;5084772;28;19924;-77
2022/05/15 02:27:48;;;;;;;;;;;;;;;13.59;59.23;101510.81;5086060;28;19982;-74
2022/05/15 02:30:14;;;;;;;;;;;;;;;13.50;59.24;101516.25;5085498;28;19923;-75
2022/05/15 02:32:39;;;;;;;;;;;;;;;13.41;59.60;101519.91;5084163;28;19916;-74
2022/05/15 02:35:05;;;;;;;;;;;;;;;13.33;60.12;101515.72;5063455;28;19924;-77
2022/05/15 02:37:30;;;;;;;;;;;;;;;13.46;59.57;101514.59;5086459;28;19977;-77
2022/05/15 02:39:56;;;;;;;;;;;;;;;13.41;59.63;101517.28;5083113;28;19989;-78
2022/05/15 02:42:21;;;;;;;;;;;;;;;13.40;59.80;101518.19;5086224;28;20286;-74
2022/05/15 02:44:46;;;;;;;;;;;;;;;13.39;59.97;101520.81;5068299;28;19924;-74
2022/05/15 02:47:12;;;;;;;;;;;;;;;13.38;60.45;101526.94;5086753;28;20434;-74
2022/05/15 02:52:21;;;;;;;;;;;;;;;13.36;60.45;101534.81;5086609;28;19974;-76
2022/05/15 02:54:46;;;;;;;;;;;;;;;13.27;60.85;101535.00;5088338;28;19924;-76
2022/05/15 02:57:12;;;;;;;;;;;;;;;13.36;60.24;101526.97;5067785;28;19924;-76
2022/05/15 02:59:38;;;;;;;;;;;;;;;13.28;60.02;101520.19;5073918;28;19931;-76
2022/05/15 03:02:03;;;;;;;;;;;;;;;13.36;59.98;101523.50;5066647;28;19924;-76
2022/05/15 03:04:29;;;;;;;;;;;;;;;13.22;60.64;101523.78;5070097;28;19924;-76
2022/05/15 03:06:55;;;;;;;;;;;;;;;13.31;60.35;101526.22;5088108;28;19975;-76
2022/05/15 03:09:20;;;;;;;;;;;;;;;13.37;60.41;101526.09;5087794;28;19924;-76
2022/05/15 03:11:45;;;;;;;;;;;;;;;13.29;60.68;101525.38;5092372;28;19926;-78
2022/05/15 03:14:11;;;;;;;;;;;;;;;13.35;60.85;101530.47;5084164;28;19946;-78
2022/05/15 03:16:36;;;;;;;;;;;;;;;13.37;60.66;101528.72;5087177;28;19967;-78
2022/05/15 03:19:02;;;;;;;;;;;;;;;13.32;60.79;101527.06;5085734;28;20419;-77
2022/05/15 03:21:30;;;;;;;;;;;;;;;13.30;60.64;101526.22;5088059;28;20003;-77
2022/05/15 03:23:57;;;;;;;;;;;;;;;13.19;60.53;101532.50;5086307;28;19927;-75
2022/05/15 03:26:23;;;;;;;;;;;;;;;13.22;60.60;101524.63;5091124;28;19916;-74
2022/05/15 03:28:49;;;;;;;;;;;;;;;13.22;60.59;101519.41;5087294;28;19993;-74
2022/05/15 03:31:14;;;;;;;;;;;;;;;13.26;60.06;101519.34;5087339;28;20332;-74
2022/05/15 03:33:40;;;;;;;;;;;;;;;13.26;60.20;101525.44;5085604;28;19974;-74
2022/05/15 03:36:10;;;;;;;;;;;;;;;13.39;59.75;101529.53;5087822;28;19962;-74
2022/05/15 03:38:36;;;;;;;;;;;;;;;13.31;59.66;101525.34;5086324;28;19916;-74
2022/05/15 03:41:01;;;;;;;;;;;;;;;13.32;59.74;101527.06;5090321;28;19935;-74
2022/05/15 03:43:27;;;;;;;;;;;;;;;13.15;60.37;101520.44;5072698;28;19979;-75
2022/05/15 03:45:52;;;;;;;;;;;;;;;13.07;60.69;101519.75;5086454;28;19924;-74
2022/05/15 03:48:17;;;;;;;;;;;;;;;13.30;59.87;101513.19;5082421;28;19932;-74
2022/05/15 03:50:43;;;;;;;;;;;;;;;13.25;60.05;101513.28;5088098;28;19935;-74
2022/05/15 03:53:08;;;;;;;;;;;;;;;13.11;60.23;101512.69;5087346;28;19930;-74
2022/05/15 03:55:33;;;;;;;;;;;;;;;13.14;60.31;101510.00;5089551;28;19970;-75
2022/05/15 03:57:59;;;;;;;;;;;;;;;13.23;59.79;101509.84;5089423;28;20424;-74
2022/05/15 04:00:24;;;;;;;;;;;;;;;13.23;59.93;101508.09;5090764;28;19928;-74
2022/05/15 04:02:50;;;;;;;;;;;;;;;13.18;59.91;101506.47;5089783;28;20034;-74
2022/05/15 04:05:15;;;;;;;;;;;;;;;13.04;60.58;101503.28;5089396;28;19923;-74
2022/05/15 04:07:44;;;;;;;;;;;;;;;13.08;60.57;101505.78;5086118;28;19920;-74
2022/05/15 04:10:10;;;;;;;;;;;;;;;13.02;60.66;101507.63;5088080;28;19935;-74
2022/05/15 04:12:36;;;;;;;;;;;;;;;13.16;60.31;101505.66;5088793;28;20403;-75
2022/05/15 04:15:01;;;;;;;;;;;;;;;13.18;60.13;101516.91;5084203;28;19916;-75
2022/05/15 04:17:26;;;;;;;;;;;;;;;13.12;60.94;101512.66;5088082;28;19920;-74
2022/05/15 04:19:52;;;;;;;;;;;;;;;13.27;60.38;101510.63;5085073;28;20317;-74
2022/05/15 04:22:17;;;;;;;;;;;;;;;13.23;59.82;101513.31;5089323;28;20033;-74
2022/05/15 04:24:42;;;;;;;;;;;;;;;13.13;60.35;101510.94;5074500;28;19928;-74
2022/05/15 04:27:07;;;;;;;;;;;;;;;13.25;60.56;101509.81;5088122;28;20543;-74
2022/05/15 04:29:33;;;;;;;;;;;;;;;13.17;60.44;101510.81;5084648;28;20285;-75
2022/05/15 04:31:58;;;;;;;;;;;;;;;13.30;60.43;101511.44;5062638;28;20365;-74
2022/05/15 04:34:27;;;;;;;;;;;;;;;13.28;60.61;101520.19;5085736;28;19924;-75
2022/05/15 04:36:52;;;;;;;;;;;;;;;13.27;60.30;101518.47;5082825;28;19946;-74
2022/05/15 04:39:18;;;;;;;;;;;;;;;13.22;60.89;101524.63;5082642;28;19928;-74
2022/05/15 04:41:43;;;;;;;;;;;;;;;13.25;60.63;101523.72;5089862;28;20383;-75
2022/05/15 04:44:09;;;;;;;;;;;;;;;13.22;60.41;101529.84;5087853;28;19920;-77
2022/05/15 04:46:34;;;;;;;;;;;;;;;13.17;61.62;101529.09;5067099;28;19931;-78
2022/05/15 04:49:00;;;;;;;;;;;;;;;13.28;61.11;101525.41;5089940;28;20487;-77
2022/05/15 04:51:26;;;;;;;;;;;;;;;13.23;61.32;101525.50;5095797;28;19915;-78
2022/05/15 04:53:51;;;;;;;;;;;;;;;13.25;61.38;101528.94;5072747;28;19924;-77
2022/05/15 04:56:16;;;;;;;;;;;;;;;13.21;61.27;101529.88;5097044;28;19921;-77
2022/05/15 04:58:42;;;;;;;;;;;;;;;13.28;61.03;101534.09;5087495;28;20348;-76
2022/05/15 05:01:07;;;;;;;;;;;;;;;13.34;60.95;101525.28;5065381;28;19974;-77
2022/05/15 05:03:34;;;;;;;;;;;;;;;13.26;61.54;101528.03;5092062;28;19924;-77
2022/05/15 05:05:59;;;;;;;;;;;;;;;13.34;61.32;101533.13;5085829;28;19923;-77
2022/05/15 05:08:24;;;;;;;;;;;;;;;13.38;61.03;101535.63;5088453;28;19928;-77
2022/05/15 05:10:50;;;;;;;;;;;;;;;13.38;61.34;101540.84;5069350;28;19982;-77
2022/05/15 05:13:15;;;;;;;;;;;;;;;13.39;61.55;101536.50;5083724;28;20010;-77
2022/05/15 05:15:40;;;;;;;;;;;;;;;13.49;61.26;101533.63;5081767;28;20009;-77
2022/05/15 05:18:06;;;;;;;;;;;;;;;13.35;61.62;101529.59;5091175;28;20365;-77
2022/05/15 05:20:31;;;;;;;;;;;;;;;13.36;61.81;101532.19;5088791;28;19927;-76
2022/05/15 05:22:56;;;;;;;;;;;;;;;13.39;62.07;101532.13;5090883;28;20388;-77
2022/05/15 05:25:22;;;;;;;;;;;;;;;13.48;62.38;101534.56;5091066;28;20366;-78
2022/05/15 05:27:47;;;;;;;;;;;;;;;13.48;62.50;101537.16;5088359;28;19920;-75
2022/05/15 05:30:15;;;;;;;;;;;;;;;13.45;61.97;101544.19;5049691;28;19930;-75
2022/05/15 05:32:40;;;;;;;;;;;;;;;13.51;62.40;101536.25;5089429;28;20345;-77
2022/05/15 05:35:06;;;;;;;;;;;;;;;13.53;62.58;101540.53;5096223;28;19947;-75
2022/05/15 05:37:32;;;;;;;;;;;;;;;13.60;62.08;101534.31;5092423;28;19936;-75
2022/05/15 05:39:57;;;;;;;;;;;;;;;13.59;62.36;101539.53;5089662;28;20352;-76
2022/05/15 05:42:22;;;;;;;;;;;;;;;13.59;62.07;101544.75;5089552;28;19947;-76
2022/05/15 05:44:48;;;;;;;;;;;;;;;13.55;62.93;101543.97;5087525;28;20400;-77
2022/05/15 05:47:13;;;;;;;;;;;;;;;13.64;62.08;101548.97;5085237;28;19962;-76
2022/05/15 05:49:38;;;;;;;;;;;;;;;13.64;62.31;101550.75;5088294;28;19963;-75
2022/05/15 05:52:04;;;;;;;;;;;;;;;13.68;62.33;101542.84;5085960;28;19934;-74
2022/05/15 05:54:38;;;;;;;;;;;;;;;13.74;62.16;101545.34;5072189;28;19924;-74
2022/05/15 05:57:04;;;;;;;;;;;;;;;13.68;61.77;101547.22;5088847;28;19923;-77
2022/05/15 05:59:29;;;;;;;;;;;;;;;13.83;60.91;101540.78;5095267;28;19926;-78
2022/05/15 06:01:55;;;;;;;;;;;;;;;13.79;61.12;101544.38;5091106;28;20361;-78
2022/05/15 06:04:39;;;;;;;;;;;;;;;13.94;60.29;101538.81;5087473;28;19975;-79
2022/05/15 06:07:05;;;;;;;;;;;;;;;13.87;61.13;101545.94;5095685;28;19994;-78
2022/05/15 06:09:30;;;;;;;;;;;;;;;13.96;61.14;101537.03;5098578;28;20013;-78
2022/05/15 06:11:55;;;;;;;;;;;;;;;14.02;61.53;101539.50;5096545;28;19926;-75
2022/05/15 06:14:20;;;;;;;;;;;;;;;14.02;61.21;101540.38;5075207;28;19927;-75
2022/05/15 06:16:46;;;;;;;;;;;;;;;14.05;61.32;101539.44;5087885;28;19920;-77
2022/05/15 06:19:11;;;;;;;;;;;;;;;14.05;62.08;101539.44;5067870;28;19929;-77
2022/05/15 06:21:36;;;;;;;;;;;;;;;14.10;60.97;101541.03;5085399;28;19930;-78
2022/05/15 06:24:02;;;;;;;;;;;;;;;14.17;61.04;101531.31;5080383;28;20673;-78
2022/05/15 06:26:27;;;;;;;;;;;;;;;14.21;60.73;101535.53;5072561;28;19920;-75
2022/05/15 06:28:52;;;;;;;;;;;;;;;14.23;60.42;101528.56;5093120;28;19927;-75
2022/05/15 06:31:17;;;;;;;;;;;;;;;14.24;59.81;101531.13;5097277;28;20301;-75
2022/05/15 06:33:43;;;;;;;;;;;;;;;14.35;59.26;101525.66;5089783;28;19927;-74
2022/05/15 06:36:08;;;;;;;;;;;;;;;14.32;59.31;101526.56;5071434;28;19927;-75
2022/05/15 06:38:33;;;;;;;;;;;;;;;14.26;59.22;101528.47;5091910;28;20037;-78
2022/05/15 06:40:59;;;;;;;;;;;;;;;14.38;58.73;101522.97;5089399;28;20308;-77
2022/05/15 06:43:24;;;;;;;;;;;;;;;14.26;58.82;101521.47;5098631;28;20431;-78
2022/05/15 06:45:49;;;;;;;;;;;;;;;14.38;58.81;101524.72;5082772;28;19920;-78
2022/05/15 06:48:15;;;;;;;;;;;;;;;14.36;60.00;101524.72;5091211;28;19962;-75
2022/05/15 06:50:41;;;;;;;;;;;;;;;14.39;59.30;101515.94;5095790;28;20064;-75
2022/05/15 06:53:10;;;;;;;;;;;;;;;14.38;59.93;101522.97;5093203;28;19924;-75
2022/05/15 06:55:35;;;;;;;;;;;;;;;14.42;58.91;101521.97;5097621;28;19955;-75
2022/05/15 06:58:01;;;;;;;;;;;;;;;14.47;58.68;101527.09;5076417;28;20296;-77
2022/05/15 07:00:28;;;;;;;;;;;;;;;14.48;58.85;101527.03;5089127;28;19924;-78
2022/05/15 07:02:53;;;;;;;;;;;;;;;14.56;59.04;101519.03;5075623;28;20015;-78
2022/05/15 07:05:27;;;;;;;;;;;;;;;14.55;59.48;101517.28;5080757;28;20023;-79
2022/05/15 07:07:53;;;;;;;;;;;;;;;14.58;59.68;101517.22;5069069;28;20007;-75
2022/05/15 07:10:18;;;;;;;;;;;;;;;14.57;58.95;101515.50;5094992;28;20007;-75
2022/05/15 07:12:44;;;;;;;;;;;;;;;14.54;58.64;101510.34;5093678;28;19924;-74
2022/05/15 07:15:09;;;;;;;;;;;;;;;14.60;59.70;101508.44;5077719;28;19982;-74
2022/05/15 07:17:34;;;;;;;;;;;;;;;14.65;58.80;101510.94;5072277;28;19922;-74
2022/05/15 07:20:00;;;;;;;;;;;;;;;14.63;59.93;101518.81;5072034;28;19928;-77
2022/05/15 07:22:25;;;;;;;;;;;;;;;14.66;59.88;101510.88;5095001;28;20447;-77
2022/05/15 07:24:50;;;;;;;;;;;;;;;14.64;60.17;101509.22;5090931;28;19930;-77
2022/05/15 07:27:15;;;;;;;;;;;;;;;14.68;59.25;101509.09;5058265;28;19927;-78
2022/05/15 07:29:41;;;;;;;;;;;;;;;14.71;59.86;101509.00;5092031;28;19960;-78
2022/05/15 07:32:07;;;;;;;;;;;;;;;14.74;59.44;101516.81;5087582;28;19915;-74
2022/05/15 07:34:33;;;;;;;;;;;;;;;14.83;58.86;101516.56;5100167;28;19934;-74
2022/05/15 07:36:58;;;;;;;;;;;;;;;14.84;59.12;101514.81;5092451;28;19920;-74
2022/05/15 07:39:24;;;;;;;;;;;;;;;14.78;60.30;101510.59;5075850;28;20416;-74
2022/05/15 07:41:50;;;;;;;;;;;;;;;14.89;59.13;101509.47;5093207;28;19980;-74
2022/05/15 07:44:16;;;;;;;;;;;;;;;14.85;60.38;101512.16;5084951;28;19974;-74
2022/05/15 07:46:41;;;;;;;;;;;;;;;14.91;59.74;101507.66;5073299;28;20439;-74
2022/05/15 07:49:07;;;;;;;;;;;;;;;14.92;59.76;101502.38;5076660;28;19928;-74
2022/05/15 07:51:33;;;;;;;;;;;;;;;14.95;60.23;101506.69;5091989;28;19978;-74
2022/05/15 07:53:59;;;;;;;;;;;;;;;15.00;59.62;101499.56;5089401;28;20297;-74
2022/05/15 07:56:25;;;;;;;;;;;;;;;14.99;59.52;101498.69;5066710;28;19930;-74
2022/05/15 07:58:50;;;;;;;;;;;;;;;15.03;58.59;101497.72;5089271;28;19949;-74
2022/05/15 08:01:15;;;;;;;;;;;;;;;15.02;58.67;101492.50;5085889;28;20029;-74
2022/05/15 08:03:44;;;;;;;;;;;;;;;15.04;59.12;101493.31;5086039;28;19974;-74
2022/05/15 08:08:54;;;;;;;;;;;;;;;15.10;59.18;101498.38;5084423;28;20070;-77
2022/05/15 08:11:19;;;;;;;;;;;;;;;15.10;59.37;101487.91;5084801;28;20343;-78
2022/05/15 08:13:44;;;;;;;;;;;;;;;15.16;59.11;101482.50;5085371;28;19928;-78
2022/05/15 08:16:10;;;;;;;;;;;;;;;15.13;59.71;101487.84;5082543;28;19928;-78
2022/05/15 08:24:04;;;;;;;;;;;;;;;15.23;58.67;101486.69;5084244;28;19995;-78
2022/05/15 08:26:29;;;;;;;;;;;;;;;15.28;58.31;101477.78;5088163;28;20006;-77
2022/05/15 08:28:55;;;;;;;;;;;;;;;15.28;57.68;101476.94;5089855;28;19986;-77
2022/05/15 08:31:21;;;;;;;;;;;;;;;15.27;57.98;101486.53;5093548;28;19931;-77
2022/05/15 08:33:47;;;;;;;;;;;;;;;15.34;59.07;101474.13;5089111;28;19938;-78
2022/05/15 08:36:12;;;;;;;;;;;;;;;15.30;57.93;101469.91;5091527;28;19924;-77
2022/05/15 08:38:38;;;;;;;;;;;;;;;15.30;58.70;101475.16;5069015;28;19968;-77
2022/05/15 08:41:07;;;;;;;;;;;;;;;15.37;57.71;101468.81;5089797;28;19920;-77
2022/05/15 08:43:48;;;;;;;;;;;;;;;15.37;57.95;101459.19;5093955;28;19916;-78
2022/05/15 08:46:26;;;;;;;;;;;;;;;15.26;59.14;101463.03;5093641;28;19920;-78
2022/05/15 08:48:53;;;;;;;;;;;;;;;15.35;57.83;101462.75;5067750;28;19920;-77
2022/05/15 08:51:18;;;;;;;;;;;;;;;15.38;57.08;101455.69;5090391;28;19924;-77
2022/05/15 08:53:46;;;;;;;;;;;;;;;15.39;57.19;101451.31;5088310;28;19927;-77
2022/05/15 08:56:14;;;;;;;;;;;;;;;15.35;56.73;101447.91;5093823;28;19923;-77
2022/05/15 08:58:44;;;;;;;;;;;;;;;15.42;57.32;101441.59;5093031;28;19923;-77
2022/05/15 09:01:12;;;;;;;;;;;;;;;15.32;57.54;101441.91;5089497;28;20335;-77
2022/05/15 09:03:38;;;;;;;;;;;;;;;15.31;57.30;101437.56;5088921;28;19989;-77
2022/05/15 09:06:22;;;;;;;;;;;;;;;15.36;57.09;101436.53;5088552;28;21066;-78
2022/05/15 09:08:51;;;;;;;;;;;;;;;15.39;57.23;101443.47;5093529;28;20495;-78
2022/05/15 09:11:40;;;;;;;;;;;;;;;15.50;56.81;101440.50;5089801;28;19916;-78
2022/05/15 09:14:11;;;;;;;;;;;;;;;15.63;56.35;101434.00;5025604;28;19940;-77
2022/05/15 09:16:39;;;;;;;;;;;;;;;15.52;56.44;101439.53;5102194;28;20292;-77
2022/05/15 09:19:06;;;;;;;;;;;;;;;15.65;56.45;101437.41;5098849;28;20350;-78
2022/05/15 09:21:31;;;;;;;;;;;;;;;15.64;55.97;101439.16;5073874;28;19924;-78
2022/05/15 09:24:04;;;;;;;;;;;;;;;15.50;56.97;101438.75;5094720;28;19920;-78
2022/05/15 09:26:30;;;;;;;;;;;;;;;15.46;57.28;101439.72;5097667;28;19925;-78
2022/05/15 09:28:58;;;;;;;;;;;;;;;15.74;56.14;101445.88;5093210;28;19976;-74
2022/05/15 09:31:23;;;;;;;;;;;;;;;15.68;55.73;101435.56;5087475;28;19963;-74
2022/05/15 09:34:11;;;;;;;;;;;;;;;15.50;56.12;101432.66;5089859;28;19963;-75
2022/05/15 09:36:37;;;;;;;;;;;;;;;15.46;56.59;101436.25;5089284;28;19920;-74
2022/05/15 09:39:22;;;;;;;;;;;;;;;15.62;56.56;101433.13;5099272;28;20022;-75
2022/05/15 09:44:50;;;;;;;;;;;;;;;15.45;56.59;101432.81;5083604;28;19955;-77
2022/05/15 09:47:18;;;;;;;;;;;;;;;15.41;57.19;101423.31;5090580;28;20681;-76
2022/05/15 09:49:44;;;;;;;;;;;;;;;15.43;57.96;101431.97;5093267;28;19919;-76
2022/05/15 09:52:11;;;;;;;;;;;;;;;15.66;57.02;101426.88;5098534;28;20293;-76
2022/05/15 09:54:38;;;;;;;;;;;;;;;15.56;57.46;101428.09;5085842;28;19970;-77
2022/05/15 09:57:26;;;;;;;;;;;;;;;15.70;56.03;101425.88;5092071;28;20480;-76
2022/05/15 10:00:00;;;;;;;;;;;;;;;15.73;56.04;101419.69;5104506;28;19920;-76
2022/05/15 10:02:25;;;;;;;;;;;;;;;15.50;56.87;101409.94;5103483;28;19927;-76
2022/05/15 10:04:52;;;;;;;;;;;;;;;15.59;56.23;101408.78;5098993;28;19916;-78
2022/05/15 10:07:34;;;;;;;;;;;;;;;15.69;55.15;101408.44;5093371;28;20300;-78
2022/05/15 10:10:12;;;;;;;;;;;;;;;15.90;53.85;101401.69;5069115;28;19991;-78
2022/05/15 10:12:39;;;;;;;;;;;;;;;15.78;55.22;101409.94;5098991;28;20393;-77
2022/05/15 10:15:08;;;;;;;;;;;;;;;15.85;55.19;101401.00;5067437;28;19916;-78
2022/05/15 10:17:34;;;;;;;;;;;;;;;15.82;54.89;101399.31;5092902;28;19916;-77
2022/05/15 10:20:04;;;;;;;;;;;;;;;16.00;54.35;101400.47;5101483;28;19927;-76
2022/05/15 10:22:29;;;;;;;;;;;;;;;15.85;55.45;101399.22;5098914;28;19942;-76
2022/05/15 10:24:57;;;;;;;;;;;;;;;15.72;55.86;101400.47;5095661;28;20320;-78
2022/05/15 10:27:27;;;;;;;;;;;;;;;15.67;56.12;101399.78;5087860;28;19932;-78
2022/05/15 10:29:58;;;;;;;;;;;;;;;15.53;56.54;101396.75;5084599;28;19924;-74
2022/05/15 10:32:28;;;;;;;;;;;;;;;15.99;54.58;101387.44;5089352;28;19927;-74
2022/05/15 10:34:53;;;;;;;;;;;;;;;15.66;56.89;101390.19;5092219;28;20000;-78
2022/05/15 10:37:37;;;;;;;;;;;;;;;15.70;56.24;101377.88;5098436;28;19955;-78
2022/05/15 10:40:21;;;;;;;;;;;;;;;15.64;56.30;101378.06;5086186;28;19932;-78
2022/05/15 10:42:58;;;;;;;;;;;;;;;15.96;55.15;101378.75;5095637;28;20397;-78
2022/05/15 10:45:33;;;;;;;;;;;;;;;16.28;53.45;101372.44;5099001;28;19927;-76
2022/05/15 10:47:58;;;;;;;;;;;;;;;16.03;54.29;101375.94;5091755;28;20297;-74
2022/05/15 10:50:26;;;;;;;;;;;;;;;15.77;56.04;101377.69;5088317;28;19916;-74
2022/05/15 10:52:51;;;;;;;;;;;;;;;15.63;56.08;101371.13;5095450;28;19924;-74
2022/05/15 10:58:16;;;;;;;;;;;;;;;16.08;53.13;101367.00;5090621;28;19930;-74
2022/05/15 11:00:49;;;;;;;;;;;;;;;15.78;54.92;101360.16;5098759;28;19924;-77
2022/05/15 11:03:33;;;;;;;;;;;;;;;15.84;53.96;101352.09;5095414;28;19917;-76
2022/05/15 11:06:24;;;;;;;;;;;;;;;16.23;52.02;101347.28;5092830;28;19916;-76
2022/05/15 11:08:59;;;;;;;;;;;;;;;15.87;53.22;101352.88;5071521;28;19924;-77
2022/05/15 11:11:29;;;;;;;;;;;;;;;16.03;52.98;101349.72;5087110;28;20023;-77
2022/05/15 11:13:54;;;;;;;;;;;;;;;15.77;55.44;101351.47;5094709;28;20049;-77
2022/05/15 11:16:25;;;;;;;;;;;;;;;15.65;55.93;101350.97;5095479;28;19970;-78
2022/05/15 11:18:59;;;;;;;;;;;;;;;15.99;53.05;101343.72;5095077;28;19966;-75
2022/05/15 11:21:36;;;;;;;;;;;;;;;16.14;51.94;101343.19;5089164;28;20301;-74
2022/05/15 11:24:04;;;;;;;;;;;;;;;15.86;54.25;101343.31;5090170;28;19970;-74
2022/05/15 11:26:32;;;;;;;;;;;;;;;15.71;55.43;101341.16;5084341;28;19977;-74
2022/05/15 11:29:02;;;;;;;;;;;;;;;16.27;51.28;101328.78;5087615;28;19958;-74
2022/05/15 11:31:31;;;;;;;;;;;;;;;16.09;52.35;101328.56;5089924;28;19920;-74
2022/05/15 11:33:58;;;;;;;;;;;;;;;15.95;54.24;101329.03;5090781;28;19924;-74
2022/05/15 11:36:27;;;;;;;;;;;;;;;15.89;54.65;101317.00;5097323;28;19966;-74
2022/05/15 11:39:00;;;;;;;;;;;;;;;15.86;54.97;101313.63;5098572;28;20338;-75
2022/05/15 11:41:31;;;;;;;;;;;;;;;16.17;53.08;101314.25;5093630;28;20015;-76
2022/05/15 11:43:58;;;;;;;;;;;;;;;15.97;54.46;101311.50;5092794;28;19916;-74
2022/05/15 11:46:43;;;;;;;;;;;;;;;15.79;54.99;101312.13;5081627;28;19924;-74
2022/05/15 11:49:22;;;;;;;;;;;;;;;15.88;54.52;101302.19;5085048;28;19926;-74
2022/05/15 11:52:12;;;;;;;;;;;;;;;15.89;54.65;101300.44;5088591;28;20019;-74
2022/05/15 11:54:39;;;;;;;;;;;;;;;16.41;50.32;101295.03;5090573;28;19927;-75
2022/05/15 11:57:06;;;;;;;;;;;;;;;16.31;51.23;101293.66;5094953;28;19948;-74
2022/05/15 11:59:38;;;;;;;;;;;;;;;16.32;50.21;101291.88;5074597;28;20428;-74
2022/05/15 12:02:24;;;;;;;;;;;;;;;15.88;54.99;101291.72;5091580;28;19970;-74
2022/05/15 12:04:51;;;;;;;;;;;;;;;15.97;53.88;101291.38;5077263;28;20543;-74
2022/05/15 12:07:16;;;;;;;;;;;;;;;15.94;53.16;101278.41;5092609;28;19920;-74
2022/05/15 12:09:44;;;;;;;;;;;;;;;15.83;55.29;101291.03;5088698;28;21571;-74
2022/05/15 12:12:22;;;;;;;;;;;;;;;15.77;55.10;101285.13;5088483;28;19912;-78
2022/05/15 12:15:06;;;;;;;;;;;;;;;16.09;54.08;101281.38;5073224;28;19916;-74
2022/05/15 12:17:34;;;;;;;;;;;;;;;15.76;55.26;101281.66;5075304;28;19916;-74
2022/05/15 12:20:16;;;;;;;;;;;;;;;16.01;53.95;101275.56;5073237;28;20011;-74
2022/05/15 12:22:43;;;;;;;;;;;;;;;16.09;53.15;101270.91;5086209;28;19999;-74
2022/05/15 12:25:10;;;;;;;;;;;;;;;15.89;54.56;101269.84;5069436;28;19916;-75
2022/05/15 12:27:46;;;;;;;;;;;;;;;16.29;52.50;101263.16;5086883;28;19966;-74
2022/05/15 12:30:17;;;;;;;;;;;;;;;15.95;55.08;101264.41;5088217;28;19973;-76
2022/05/15 12:32:51;;;;;;;;;;;;;;;15.89;54.59;101264.59;5074058;28;19924;-78
2022/05/15 12:35:16;;;;;;;;;;;;;;;15.81;55.01;101260.53;5087963;28;19924;-78
2022/05/15 12:37:52;;;;;;;;;;;;;;;16.17;53.18;101261.84;5088802;28;20084;-78
2022/05/15 12:40:24;;;;;;;;;;;;;;;16.26;53.18;101250.16;5070846;28;19928;-78
2022/05/15 12:42:49;;;;;;;;;;;;;;;16.50;52.40;101249.25;5088761;28;20036;-78
2022/05/15 12:45:19;;;;;;;;;;;;;;;16.51;48.73;101246.59;5085760;28;19920;-77
2022/05/15 12:47:57;;;;;;;;;;;;;;;16.76;47.51;101237.81;5093249;28;20440;-77
2022/05/15 12:50:22;;;;;;;;;;;;;;;16.55;48.25;101233.38;5092899;28;19920;-77
2022/05/15 12:52:54;;;;;;;;;;;;;;;16.44;48.93;101233.75;5094545;28;19927;-77
2022/05/15 12:55:25;;;;;;;;;;;;;;;16.41;50.85;101233.88;5089162;28;20280;-77